Dillingham, AK (99576)

4:03 AM AKDT on October 20, 2019 (GMT -0800)
Dillingham | | Change Station

Elev 85 ft 59.05 °N, 158.50 °W | Updated 7 minutes ago

Overcast
Overcast
32 °F
Feels Like 24 °F
N
10
Wind Variable Wind from NNE

Today
High -- | Low -- °F
--% Chance of Precip.
Yesterday
High -- | Low -- °F
Precip. -- in
Pressure 29.59 in
Visibility 10.0 miles
Clouds Mostly Cloudy 1000 ft
Overcast 2800 ft
Windchill 24 °F
Dew Point 30 °F
Humidity 92%
Rainfall 0.02 in
Snow Depth Not available.
9:23 AM 7:13 PM
Waning Gibbous, 61% visible
METAR PADL 201156Z AUTO 03009KT 10SM UP BKN010 OVC028 00/M01 A2958 RMK AO2 SLP020 P0000 60002 70002 T00001011 10006 20000 53002 FZRANO
Pressure 29.59 in
Visibility 10.0 miles
Clouds Mostly Cloudy 1000 ft
Overcast 2800 ft
Windchill 24 °F
Dew Point 30 °F
Humidity 92%
Rainfall 0.02 in
Snow Depth Not available.
9:23 AM 7:13 PM
Waning Gibbous, 61% visible
METAR PADL 201156Z AUTO 03009KT 10SM UP BKN010 OVC028 00/M01 A2958 RMK AO2 SLP020 P0000 60002 70002 T00001011 10006 20000 53002 FZRANO

Get Severe Weather Alerts

Thanks for signing up!

Be on the lookout for a verification email in your inbox.

You'll start receiving the daily forecast at 6 AM.

×

10-Day Weather Forecast

Almanac

Astronomy

Oct. 20, 2019 Rise Set
Actual Time
Civil Twilight
Nautical Twilight
Astronomical Twilight
Moon
Length of Visible Light
Length of Day
Tomorrow will be .
, % of the Moon is Illuminated

Today's Extremes

State Highs State Lows

Community

WunderPhotos

Category 6

Welcome to Category 6. This is the collective home for Weather Underground's featured writeups by Dr. Jeff Masters (right), Bob Henson (left), Chris Burt, and other regular contributors.

Nearby

Air Quality

  Air Quality AQ Index Pollutant
Not available.

Snow Depth

Station Depth Elevation

Earthquake Activity

City Distance Mag. Time & Date
Minimum magnitude displayed is 2.5.

Coastal Water Temperatures

Place Temperature

Stations

Nearby Weather Stations

Station Location Temp. Windchill Dew Point Humidity Wind Precip. Elev Updated Type
                   

Watches & Warnings

There are currently no watches in effect.